This is the latest recevied weather packets stored in our database for station/object K9ABJ. If no packets are shown the sender has not sent any weather packets the latest 10 day(s).
| Time | Temp. | Humidity | Pressure | Rain* | Wind** | Luminosity | Snow |
|---|---|---|---|---|---|---|---|
| 1787855096 | 30.56° C | 55% | 1015.8 hPa | 0 mm | - | 794 W/m² | - |
| 1787854791 | 31.11° C | 53% | 1015.6 hPa | 0 mm | - | 822 W/m² | - |
| 1787854490 | 30° C | 52% | 1015.7 hPa | 0 mm | - | 481 W/m² | - |
| 1787854185 | 30.56° C | 53% | 1015.9 hPa | 0 mm | - | 208 W/m² | - |
| 1787853880 | 30° C | 57% | 1016 hPa | 0 mm | - | 823 W/m² | - |
| 1787853579 | 30° C | 54% | 1015.9 hPa | 0 mm | - | 220 W/m² | - |
| 1787853279 | 27.22° C | 61% | 1015.8 hPa | 0 mm | - | 884 W/m² | - |
| 1787852979 | 30.56° C | 54% | 1015.9 hPa | 0 mm | - | 862 W/m² | - |
| 1787852674 | 31.67° C | 55% | 1015.8 hPa | 0 mm | - | 896 W/m² | - |
| 1787852373 | 29.44° C | 57% | 1015.8 hPa | 0 mm | - | 181 W/m² | - |
| 1787852072 | 30.56° C | 55% | 1015.8 hPa | 0 mm | - | 241 W/m² | - |
| 1787851772 | 32.22° C | 53% | 1016 hPa | 0 mm | - | 643 W/m² | - |
| 1787851467 | 29.44° C | 57% | 1015.8 hPa | 0 mm | - | 635 W/m² | - |
| 1787851162 | 28.89° C | 60% | 1015.9 hPa | 0 mm | - | 675 W/m² | - |
| 1787850858 | 30° C | 57% | 1015.8 hPa | 0 mm | - | 662 W/m² | - |
| 1787850554 | 27.78° C | 61% | 1015.9 hPa | 0 mm | - | 235 W/m² | - |
| 1787850249 | 28.89° C | 58% | 1015.9 hPa | 0 mm | - | 557 W/m² | - |
| 1787849949 | 31.11° C | 57% | 1016 hPa | 0 mm | - | 517 W/m² | - |
| 1787849648 | 30° C | 59% | 1015.9 hPa | 0 mm | - | 516 W/m² | - |
| 1787849343 | 29.44° C | 57% | 1016.1 hPa | 0 mm | - | 555 W/m² | - |
| 1787849042 | 27.78° C | 63% | 1016 hPa | 0 mm | - | 586 W/m² | - |
| 1787848737 | 28.89° C | 59% | 1016.1 hPa | 0 mm | - | 582 W/m² | - |
| 1787848432 | 29.44° C | 59% | 1016 hPa | 0 mm | - | 511 W/m² | - |
| 1787848132 | 30° C | 60% | 1015.8 hPa | 0 mm | - | 515 W/m² | - |
| 1787847831 | 30° C | 58% | 1015.7 hPa | 0 mm | - | 577 W/m² | - |
* Rain latest hour (hover to see other rain measurements)
** Current wind speed in m/s (hover to see current wind gust speed)